Aeroporto :
LOGIN :

Iscrizione | Disclaimer

   EN    FR    IT 

 










Sommario :    VFR   VFR Marginale   IFR   IFR Intensivo   IFR Molto Intensivo
Visibilità : 
Base nubi : 
>= 8 km
>= 3000ft
5 / 8 km
1000 / 3000 ft
1500m / 5 km
500 / 1000 ft
800 / 1500m
200 / 500 ft
< 800m
< 200 ft
Simboli :   Temporali  Nebbia  Neve Forte  Precipitazioni Forti  Vento > 20 kt
SIGMETs :   Varie  Temporali  Ghiacco  Turbolenza  Onda orograficha  Ceneri Vulcaniche







- Altitudine del aeroporto : 1487 ft
- Codice IATA : MUC


EDDM - München Franz Josef Strauss

ULTIMO METAR :
  • 251150Z 02004KT 280V070 9999 FEW030 25/16 Q1020 NOSIG

METARs OBSOLETI :
  • 251120Z VRB04KT 9999 FEW020 25/18 Q1020 NOSIG
  • 251050Z VRB02KT 9999 FEW015 24/17 Q1020 NOSIG
  • 251020Z VRB02KT 9999 FEW014 24/18 Q1020 NOSIG
  • 250950Z 06003KT 320V120 9999 FEW014 23/18 Q1020 NOSIG
  • 250920Z 33003KT 270V060 9999 FEW013 22/18 Q1020 NOSIG

TAF TAF EDDM
Valido dal 25 a 12 ore il 26 a 18 ore UTC


251100Z 2512/2618 VRB03KT 9999 FEW030
PROB40
TEMPO 2515/2520 36015KT 4000 TSRA SCT015 BKN025CB
BECMG 2600/2603 2000 BCFG
TEMPO 2603/2607 0500 FG
BECMG 2607/2608 4000 BR BKN005
BECMG 2608/2610 9999 SCT025
PROB30
TEMPO 2615/2618 30015KT TSRA SCT015 BKN025CB
Nessun NOTAM noto per questo aeroporto.



MetMap, La meteo Aeronautica in un colpo d'occhio ! - Copyright ORBIFLY Dicembre 2007 - Disclaimer

ORBIFLY MET'MAP TEAM :

Programmazione e sviluppo : Alexandra Zaïnal
Concezione e sviluppo : Baudouin d'Aumeries
Co-Programmazione e sviluppo : Marc-Olivier Méhu
Supporto tecnico e logistico : Manuel Goepfert
Aiuto per la traduzione : Arnaldo La Scala

Contatto : metmap@orbifly.com




FONTI E CREDITI :

   NOAA